Time;durP1;ratioP1;P1;durP2;ratioP2;P2;SDS_P1;SDS_P2;PMS_P1;PMS_P2;Temp;Humidity;BMP_temperature;BMP_pressure;BME280_temperature;BME280_humidity;BME280_pressure;Samples;Min_cycle;Max_cycle;Signal;HPM_P1;HPM_P2
2023/08/05 00:01:00;;;;;;;8.27;4.40;;;;;;;20.95;57.36;97350.00;5085517;28;21285;-70
2023/08/05 00:03:26;;;;;;;6.47;4.57;;;;;;;20.93;57.35;97365.38;5083894;28;20217;-68
2023/08/05 00:05:51;;;;;;;4.83;4.43;;;;;;;20.91;57.62;97360.28;5093255;28;20182;-69
2023/08/05 00:08:17;;;;;;;4.90;4.07;;;;;;;20.91;57.33;97359.44;5087958;28;20630;-69
2023/08/05 00:10:45;;;;;;;8.43;4.73;;;;;;;20.92;57.45;97363.75;5091938;28;20263;-69
2023/08/05 00:13:11;;;;;;;6.77;4.37;;;;;;;20.95;57.63;97363.31;5088827;28;20224;-69
2023/08/05 00:15:37;;;;;;;4.03;3.73;;;;;;;20.94;57.55;97365.16;5096719;28;20454;-69
2023/08/05 00:18:02;;;;;;;10.43;4.40;;;;;;;20.93;57.25;97376.03;5086431;28;20759;-69
2023/08/05 00:20:28;;;;;;;5.27;4.20;;;;;;;20.91;57.36;97376.25;5081727;28;20214;-69
2023/08/05 00:22:53;;;;;;;5.77;4.50;;;;;;;20.91;57.73;97373.59;5086429;28;20873;-69
2023/08/05 00:25:18;;;;;;;6.13;4.20;;;;;;;20.91;57.78;97376.25;5089637;28;20790;-70
2023/08/05 00:27:44;;;;;;;4.97;4.07;;;;;;;20.91;57.45;97386.91;5089017;28;20213;-68
2023/08/05 00:30:10;;;;;;;4.50;4.07;;;;;;;20.90;57.34;97385.28;5089819;28;20206;-69
2023/08/05 00:32:36;;;;;;;6.07;3.90;;;;;;;20.90;57.40;97387.94;5088777;28;20194;-69
2023/08/05 00:35:05;;;;;;;4.60;4.20;;;;;;;20.82;57.72;97388.16;5056616;28;20514;-68
2023/08/05 00:37:31;;;;;;;4.50;4.10;;;;;;;20.81;57.74;97378.53;5082028;28;20477;-69
2023/08/05 00:39:57;;;;;;;7.00;4.50;;;;;;;20.76;57.75;97363.22;5090745;28;20456;-69
2023/08/05 00:42:23;;;;;;;4.70;4.10;;;;;;;20.74;58.05;97359.09;5097457;28;20908;-69
2023/08/05 00:44:48;;;;;;;10.20;4.50;;;;;;;20.77;58.01;97359.50;5078305;28;20186;-70
2023/08/05 00:47:18;;;;;;;5.20;4.00;;;;;;;20.77;57.77;97356.84;5083957;28;20217;-68
2023/08/05 00:49:44;;;;;;;5.03;3.90;;;;;;;20.75;57.86;97348.25;5089237;28;20297;-70
2023/08/05 00:52:09;;;;;;;7.70;4.67;;;;;;;20.76;58.30;97341.09;5080441;28;20436;-68
2023/08/05 00:54:35;;;;;;;6.23;4.23;;;;;;;20.79;58.00;97332.69;5090764;28;20470;-69
2023/08/05 00:57:02;;;;;;;5.50;4.80;;;;;;;20.80;58.09;97326.31;5085163;28;20670;-68
2023/08/05 00:59:27;;;;;;;7.83;4.30;;;;;;;20.75;57.91;97326.16;5084856;28;20852;-70
2023/08/05 01:01:52;;;;;;;6.17;4.20;;;;;;;20.71;57.87;97323.09;5088105;28;20438;-70
2023/08/05 01:04:18;;;;;;;5.20;4.03;;;;;;;20.69;58.25;97320.63;5086242;28;20323;-69
2023/08/05 01:06:44;;;;;;;10.63;3.50;;;;;;;20.67;58.25;97333.31;5081703;28;20194;-70
2023/08/05 01:09:10;;;;;;;4.27;3.90;;;;;;;20.71;58.15;97328.41;5088435;28;20202;-70
2023/08/05 01:11:35;;;;;;;4.53;3.77;;;;;;;20.71;57.97;97329.22;5091457;28;20498;-69
2023/08/05 01:14:01;;;;;;;5.73;3.93;;;;;;;20.72;58.28;97325.50;5094600;28;20216;-69
2023/08/05 01:16:26;;;;;;;5.87;3.80;;;;;;;20.74;58.13;97337.81;5084172;28;20274;-70
2023/08/05 01:18:53;;;;;;;4.70;4.10;;;;;;;20.71;57.74;97334.53;5086203;28;20229;-69
2023/08/05 01:21:22;;;;;;;4.67;4.00;;;;;;;20.64;58.19;97347.09;5085998;28;20204;-69
2023/08/05 01:24:13;;;;;;;6.30;3.77;;;;;;;20.62;57.96;97343.81;5093131;28;20430;-69
2023/08/05 01:26:40;;;;;;;4.10;3.60;;;;;;;20.58;58.11;97350.59;5083769;28;20435;-69
2023/08/05 01:29:05;;;;;;;6.40;3.83;;;;;;;20.57;58.19;97346.28;5082631;28;20948;-71
2023/08/05 01:31:31;;;;;;;6.00;4.07;;;;;;;20.53;58.13;97343.25;5087226;28;20481;-69
2023/08/05 01:33:57;;;;;;;7.30;3.80;;;;;;;20.55;58.12;97346.50;5086450;28;20286;-68
2023/08/05 01:36:22;;;;;;;3.97;3.57;;;;;;;20.55;58.29;97337.69;5091063;28;20189;-68
2023/08/05 01:38:48;;;;;;;4.73;3.77;;;;;;;20.54;58.21;97344.06;5084640;28;20630;-69
2023/08/05 01:41:17;;;;;;;5.23;3.60;;;;;;;20.55;58.13;97346.50;5085837;28;20194;-69
2023/08/05 01:43:42;;;;;;;6.97;3.67;;;;;;;20.51;58.36;97344.50;5091830;28;20506;-69
2023/08/05 01:46:08;;;;;;;6.27;3.70;;;;;;;20.44;58.55;97351.66;5082452;28;20527;-69
2023/08/05 01:48:34;;;;;;;7.73;4.20;;;;;;;20.47;58.70;97354.75;5084732;28;20209;-69
2023/08/05 01:50:59;;;;;;;4.27;3.80;;;;;;;20.49;58.48;97358.00;5086387;28;20246;-69
2023/08/05 01:53:24;;;;;;;4.97;3.87;;;;;;;20.50;58.68;97348.97;5083089;28;20185;-70
2023/08/05 01:55:50;;;;;;;6.73;3.70;;;;;;;20.53;58.59;97342.44;5095506;28;20700;-71
2023/08/05 01:58:15;;;;;;;5.77;3.87;;;;;;;20.50;58.45;97338.34;5086287;28;20289;-69
2023/08/05 02:00:49;;;;;;;6.47;4.30;;;;;;;20.48;58.34;97334.25;5084511;28;20246;-69
2023/08/05 02:03:14;;;;;;;4.77;3.97;;;;;;;20.45;58.53;97330.19;5078567;28;20571;-70
2023/08/05 02:05:40;;;;;;;4.80;4.10;;;;;;;20.43;58.93;97321.59;5089649;28;20463;-69
2023/08/05 02:08:05;;;;;;;7.13;3.50;;;;;;;20.38;59.01;97324.91;5099972;28;20244;-69
2023/08/05 02:10:31;;;;;;;7.77;4.73;;;;;;;20.42;59.12;97322.63;5088171;28;20288;-70
2023/08/05 02:12:56;;;;;;;6.93;4.10;;;;;;;20.41;58.70;97327.13;5093415;28;20185;-69
2023/08/05 02:15:21;;;;;;;6.70;4.63;;;;;;;20.41;58.94;97324.44;5088759;28;20653;-70
2023/08/05 02:17:47;;;;;;;5.13;4.10;;;;;;;20.44;58.64;97322.41;5085989;28;20189;-71
2023/08/05 02:20:12;;;;;;;4.10;3.70;;;;;;;20.46;58.70;97315.03;5079105;28;20188;-69
2023/08/05 02:22:38;;;;;;;9.53;4.70;;;;;;;20.44;58.74;97317.06;5080408;28;20182;-69
2023/08/05 02:25:04;;;;;;;6.37;3.90;;;;;;;20.51;58.14;97312.53;5090034;28;20216;-70
2023/08/05 02:27:29;;;;;;;9.50;3.70;;;;;;;20.48;58.23;97307.66;5080332;28;20186;-69
2023/08/05 02:29:54;;;;;;;4.70;4.03;;;;;;;20.44;58.16;97296.63;5095238;28;20261;-70
2023/08/05 02:32:20;;;;;;;6.17;4.27;;;;;;;20.42;58.04;97290.69;5086600;28;20255;-70
2023/08/05 02:34:45;;;;;;;4.90;4.07;;;;;;;20.39;58.28;97286.59;5086768;28;20210;-68
2023/08/05 02:37:11;;;;;;;4.73;3.83;;;;;;;20.34;58.21;97280.28;5093962;28;20185;-68
2023/08/05 02:39:39;;;;;;;5.50;4.13;;;;;;;20.26;58.46;97273.38;5080908;28;20229;-69
2023/08/05 02:42:05;;;;;;;5.20;3.93;;;;;;;20.24;58.49;97260.25;5090784;28;20254;-69
2023/08/05 02:44:30;;;;;;;4.10;3.70;;;;;;;20.19;58.91;97259.28;5087069;28;20917;-70
2023/08/05 02:46:55;;;;;;;5.53;4.30;;;;;;;20.14;58.78;97269.75;5054299;28;20190;-69
2023/08/05 02:49:21;;;;;;;10.83;4.40;;;;;;;20.07;58.81;97281.22;5075832;28;20209;-69
2023/08/05 02:51:46;;;;;;;4.27;3.93;;;;;;;20.09;59.00;97278.38;5091765;28;20193;-70
2023/08/05 02:54:13;;;;;;;5.37;4.20;;;;;;;20.06;58.92;97284.91;5089925;28;20220;-70
2023/08/05 02:56:39;;;;;;;6.90;3.77;;;;;;;20.11;59.08;97302.91;5095247;28;20193;-69
2023/08/05 02:59:05;;;;;;;8.80;4.13;;;;;;;20.06;59.00;97310.72;5089982;28;20456;-69
2023/08/05 03:01:30;;;;;;;7.37;5.40;;;;;;;20.07;59.12;97299.03;5090979;28;20497;-71
2023/08/05 03:03:56;;;;;;;7.30;4.60;;;;;;;20.04;58.92;97292.28;5091984;28;20289;-70
2023/08/05 03:06:21;;;;;;;4.30;3.80;;;;;;;20.04;59.18;97296.78;5084018;28;20186;-70
2023/08/05 03:08:47;;;;;;;5.97;3.93;;;;;;;20.02;59.33;97298.84;5091763;28;20217;-70
2023/08/05 03:11:12;;;;;;;7.23;4.40;;;;;;;20.01;59.26;97298.03;5088832;28;20189;-70
2023/08/05 03:13:38;;;;;;;6.10;4.40;;;;;;;20.04;59.39;97307.44;5091079;28;20186;-69
2023/08/05 03:16:13;;;;;;;5.00;4.03;;;;;;;20.03;59.24;97322.59;5080909;28;20276;-69
2023/08/05 03:18:39;;;;;;;4.83;3.90;;;;;;;20.03;59.27;97333.22;5083978;28;20231;-69
2023/08/05 03:21:05;;;;;;;5.73;4.37;;;;;;;20.04;59.17;97323.41;5071289;28;20444;-69
2023/08/05 03:23:30;;;;;;;9.50;5.17;;;;;;;20.06;59.36;97342.63;5076600;28;20190;-70
2023/08/05 03:25:56;;;;;;;6.20;4.40;;;;;;;20.05;59.24;97344.47;5084014;28;20315;-69
2023/08/05 03:28:21;;;;;;;5.03;3.80;;;;;;;20.05;59.03;97346.31;5086011;28;20217;-69
2023/08/05 03:30:47;;;;;;;5.57;4.43;;;;;;;20.06;59.09;97348.75;5086351;28;20319;-70
2023/08/05 03:33:12;;;;;;;6.00;4.33;;;;;;;19.99;59.10;97353.28;5088211;28;20232;-70
2023/08/05 03:35:44;;;;;;;5.60;4.40;;;;;;;19.99;59.15;97350.63;5090138;28;20253;-69
2023/08/05 03:38:10;;;;;;;5.20;4.50;;;;;;;20.00;59.42;97344.28;5080486;28;20296;-69
2023/08/05 03:40:35;;;;;;;7.60;4.50;;;;;;;19.99;59.17;97337.31;5089158;28;20957;-71
2023/08/05 03:43:02;;;;;;;5.67;4.40;;;;;;;19.93;59.41;97354.94;5095668;28;20186;-70
2023/08/05 03:45:27;;;;;;;7.50;4.70;;;;;;;19.97;59.28;97350.00;5081850;28;20186;-70
2023/08/05 03:47:54;;;;;;;5.47;4.60;;;;;;;19.94;59.40;97359.25;5088705;28;20959;-70
2023/08/05 03:50:20;;;;;;;8.20;5.00;;;;;;;19.90;59.41;97360.66;5093630;28;20189;-69
2023/08/05 03:52:46;;;;;;;9.53;4.80;;;;;;;19.91;59.51;97361.50;5087404;28;20541;-70
2023/08/05 03:55:12;;;;;;;5.30;4.77;;;;;;;19.98;59.23;97367.59;5088921;28;20477;-68
2023/08/05 03:57:37;;;;;;;5.70;4.73;;;;;;;20.00;59.53;97362.91;5089769;28;20278;-68
2023/08/05 04:00:04;;;;;;;6.13;4.43;;;;;;;20.03;59.44;97369.63;5090720;28;20288;-69
2023/08/05 04:02:29;;;;;;;6.50;4.47;;;;;;;20.07;59.19;97371.66;5069233;28;20208;-69
2023/08/05 04:04:54;;;;;;;6.23;4.30;;;;;;;20.10;59.08;97363.28;5054485;28;20428;-69
2023/08/05 04:07:22;;;;;;;5.73;4.13;;;;;;;20.08;59.11;97362.66;5064543;28;20235;-70
2023/08/05 04:09:53;;;;;;;8.10;5.10;;;;;;;20.13;59.11;97358.56;5071937;28;20631;-69
2023/08/05 04:12:18;;;;;;;4.57;4.20;;;;;;;20.13;59.01;97369.22;5089840;28;20436;-69
2023/08/05 04:14:44;;;;;;;5.23;4.23;;;;;;;20.15;58.79;97367.97;5086538;28;20466;-69
2023/08/05 04:17:12;;;;;;;4.87;4.37;;;;;;;20.17;58.59;97365.91;5087312;28;20196;-69
2023/08/05 04:19:37;;;;;;;6.43;5.00;;;;;;;20.16;58.54;97363.47;5073292;28;20682;-69
2023/08/05 04:22:04;;;;;;;5.43;4.60;;;;;;;20.16;58.68;97363.47;5090968;28;20451;-69
2023/08/05 04:24:29;;;;;;;5.10;4.07;;;;;;;20.18;58.49;97356.06;5099672;28;20211;-69
2023/08/05 04:26:55;;;;;;;6.43;4.80;;;;;;;20.19;58.70;97355.06;5091974;28;20420;-70
2023/08/05 04:29:22;;;;;;;4.90;4.40;;;;;;;20.18;58.44;97356.06;5090198;28;20692;-69
2023/08/05 04:31:48;;;;;;;4.87;4.37;;;;;;;20.17;58.56;97362.41;5084186;28;20450;-69
2023/08/05 04:34:14;;;;;;;5.57;4.53;;;;;;;20.13;58.61;97369.22;5080158;28;20498;-70
2023/08/05 04:36:39;;;;;;;5.27;4.83;;;;;;;20.07;58.74;97368.22;5083161;28;20665;-70
2023/08/05 04:39:06;;;;;;;5.97;4.30;;;;;;;20.06;58.74;97367.38;5090175;28;20213;-70
2023/08/05 04:41:31;;;;;;;7.33;4.53;;;;;;;20.06;58.72;97359.38;5096564;28;20185;-69
2023/08/05 04:43:57;;;;;;;5.30;4.13;;;;;;;20.08;58.85;97377.81;5087711;28;20879;-69
2023/08/05 04:46:22;;;;;;;5.60;4.27;;;;;;;20.10;58.65;97384.56;5087702;28;20217;-71
2023/08/05 04:48:48;;;;;;;7.57;3.93;;;;;;;20.12;58.65;97388.84;5089508;28;20233;-69
2023/08/05 04:51:13;;;;;;;8.53;5.03;;;;;;;20.14;58.48;97392.13;5087799;28;20268;-69
2023/08/05 04:53:38;;;;;;;8.33;4.90;;;;;;;20.16;58.33;97390.09;5079958;28;20211;-69
2023/08/05 04:56:04;;;;;;;5.03;3.97;;;;;;;20.17;58.45;97386.38;5087147;28;20678;-69
2023/08/05 04:58:29;;;;;;;5.03;4.40;;;;;;;20.16;58.37;97382.09;5087837;28;21091;-68
2023/08/05 05:00:56;;;;;;;5.30;4.40;;;;;;;20.15;58.32;97383.13;5086659;28;20181;-70
2023/08/05 05:03:22;;;;;;;6.83;4.70;;;;;;;20.17;58.48;97386.38;5088365;28;20217;-70
2023/08/05 05:05:47;;;;;;;7.10;4.47;;;;;;;20.19;58.09;97381.66;5090225;28;20488;-70
2023/08/05 05:08:13;;;;;;;4.73;4.23;;;;;;;20.20;58.33;97385.97;5081414;28;20205;-69
2023/08/05 05:10:38;;;;;;;4.23;3.60;;;;;;;20.18;58.17;97394.16;5090091;28;20278;-69
2023/08/05 05:13:03;;;;;;;5.10;4.33;;;;;;;20.19;58.07;97392.31;5089746;28;20285;-69
2023/08/05 05:15:29;;;;;;;9.63;4.00;;;;;;;20.21;57.91;97384.94;5084721;28;20301;-70
2023/08/05 05:17:54;;;;;;;7.07;4.03;;;;;;;20.24;57.85;97392.50;5089090;28;20239;-69
2023/08/05 05:20:20;;;;;;;4.63;4.10;;;;;;;20.26;57.93;97385.13;5079292;28;20278;-70
2023/08/05 05:22:45;;;;;;;8.97;4.30;;;;;;;20.24;57.98;97384.50;5087377;28;20265;-70
2023/08/05 05:25:11;;;;;;;4.30;3.90;;;;;;;20.22;57.80;97389.22;5096584;28;20658;-70
2023/08/05 05:27:36;;;;;;;6.20;4.00;;;;;;;20.25;58.06;97386.16;5088918;28;20184;-70
2023/08/05 05:30:02;;;;;;;5.43;4.10;;;;;;;20.27;58.03;97392.09;5088053;28;20213;-69
2023/08/05 05:32:27;;;;;;;4.03;3.63;;;;;;;20.27;57.92;97389.44;5087399;28;20220;-70
2023/08/05 05:34:53;;;;;;;5.00;3.97;;;;;;;20.31;57.65;97374.66;5079318;28;20921;-69
2023/08/05 05:37:18;;;;;;;7.13;3.90;;;;;;;20.32;57.46;97384.28;5087239;28;20536;-71
2023/08/05 05:39:44;;;;;;;6.03;3.50;;;;;;;20.37;57.67;97387.13;5089852;28;20212;-68
2023/08/05 05:42:10;;;;;;;4.07;3.63;;;;;;;20.35;57.67;97394.50;5087846;28;20189;-69
2023/08/05 05:44:38;;;;;;;4.20;3.67;;;;;;;20.35;57.57;97391.84;5083390;28;20649;-69
2023/08/05 05:47:04;;;;;;;4.10;3.33;;;;;;;20.36;57.53;97395.31;5076445;28;20206;-70
2023/08/05 05:49:29;;;;;;;8.53;3.80;;;;;;;20.37;57.92;97388.97;5083956;28;20458;-70
2023/08/05 05:51:55;;;;;;;5.57;4.07;;;;;;;20.35;57.57;97386.53;5088097;28;20427;-69
2023/08/05 05:54:20;;;;;;;4.17;3.40;;;;;;;20.30;58.04;97386.31;5086489;28;20209;-69
2023/08/05 05:56:45;;;;;;;4.87;4.37;;;;;;;20.33;57.66;97385.09;5084148;28;20650;-70
2023/08/05 05:59:11;;;;;;;8.53;3.50;;;;;;;20.33;57.98;97379.78;5090263;28;20802;-69
2023/08/05 06:01:36;;;;;;;4.83;4.13;;;;;;;20.33;57.50;97371.81;5087271;28;20666;-68
2023/08/05 06:04:04;;;;;;;6.57;3.90;;;;;;;20.34;57.49;97368.91;5082809;28;20207;-69
2023/08/05 06:06:30;;;;;;;3.77;3.20;;;;;;;20.37;57.69;97370.34;5087439;28;20185;-69
2023/08/05 06:08:55;;;;;;;6.07;3.70;;;;;;;20.40;57.86;97368.09;5088254;28;20470;-68
2023/08/05 06:11:21;;;;;;;3.60;3.30;;;;;;;20.45;57.89;97369.28;5088562;28;20810;-69
2023/08/05 06:13:47;;;;;;;6.10;3.30;;;;;;;20.48;57.77;97366.19;5089643;28;20176;-69
2023/08/05 06:16:12;;;;;;;6.17;3.87;;;;;;;20.51;57.54;97355.94;5087594;28;20298;-70
2023/08/05 06:18:38;;;;;;;6.33;3.80;;;;;;;20.54;57.34;97349.41;5089648;28;20213;-70
2023/08/05 06:21:04;;;;;;;3.93;3.50;;;;;;;20.56;57.51;97349.97;5082092;28;20678;-69
2023/08/05 06:23:29;;;;;;;4.40;4.00;;;;;;;20.58;57.21;97353.25;5081040;28;20651;-69
2023/08/05 06:25:54;;;;;;;3.80;3.40;;;;;;;20.66;57.19;97349.53;5078117;28;20260;-69
2023/08/05 06:28:20;;;;;;;5.30;3.60;;;;;;;20.72;57.02;97362.00;5075115;28;20304;-68
2023/08/05 06:30:46;;;;;;;4.90;3.60;;;;;;;20.78;56.81;97355.03;5088596;28;20184;-70
2023/08/05 06:33:12;;;;;;;22.80;3.73;;;;;;;20.86;56.79;97357.41;5082025;28;20198;-71
2023/08/05 06:35:38;;;;;;;4.97;3.47;;;;;;;20.92;56.81;97347.75;5070404;28;20199;-70
2023/08/05 06:38:03;;;;;;;6.53;3.33;;;;;;;20.93;56.08;97352.84;5077961;28;20431;-68
2023/08/05 06:40:29;;;;;;;5.10;3.40;;;;;;;20.98;55.97;97350.38;5079614;28;20792;-70
2023/08/05 06:42:56;;;;;;;7.37;3.67;;;;;;;21.05;56.32;97354.81;5079281;28;20734;-70
2023/08/05 06:45:21;;;;;;;8.03;4.27;;;;;;;21.11;55.81;97353.97;5081207;28;20182;-69
2023/08/05 06:47:47;;;;;;;3.67;3.40;;;;;;;21.15;55.64;97355.97;5076980;28;20408;-71
2023/08/05 06:50:12;;;;;;;5.00;3.23;;;;;;;21.18;55.77;97355.56;5080152;28;20206;-70
2023/08/05 06:52:38;;;;;;;3.40;3.10;;;;;;;21.25;55.25;97347.50;5082819;28;20179;-69
2023/08/05 06:55:04;;;;;;;7.63;3.20;;;;;;;21.30;55.49;97347.66;5080784;28;20193;-70
2023/08/05 06:57:32;;;;;;;5.73;3.27;;;;;;;21.37;54.97;97347.59;5083947;28;20174;-70
2023/08/05 06:59:58;;;;;;;3.00;2.80;;;;;;;21.43;55.13;97346.75;5076003;28;20809;-70
2023/08/05 07:02:25;;;;;;;5.83;3.13;;;;;;;21.46;54.91;97342.81;5076177;28;20440;-70
2023/08/05 07:04:51;;;;;;;3.43;3.10;;;;;;;21.52;54.75;97333.13;5067284;28;20836;-68
2023/08/05 07:07:17;;;;;;;5.00;3.43;;;;;;;21.55;54.70;97338.81;5083008;28;20428;-69
2023/08/05 07:09:42;;;;;;;3.43;3.10;;;;;;;21.61;54.31;97327.31;5078081;28;21044;-69
2023/08/05 07:12:08;;;;;;;3.33;3.03;;;;;;;21.65;54.30;97329.56;5080018;28;20229;-68
2023/08/05 07:14:33;;;;;;;3.07;2.83;;;;;;;21.72;54.38;97330.28;5084017;28;20207;-70
2023/08/05 07:16:59;;;;;;;6.07;3.37;;;;;;;21.78;53.87;97332.09;5083176;28;20185;-69
2023/08/05 07:19:24;;;;;;;6.53;2.90;;;;;;;21.90;54.00;97341.00;5083995;28;20292;-69
2023/08/05 07:21:50;;;;;;;11.10;3.10;;;;;;;22.00;53.95;97339.66;5087803;28;20190;-70
2023/08/05 07:24:18;;;;;;;6.17;3.43;;;;;;;22.07;53.37;97337.72;5088574;28;20181;-69
2023/08/05 07:26:43;;;;;;;4.50;3.30;;;;;;;22.12;53.14;97343.22;5085063;28;20428;-69
2023/08/05 07:29:08;;;;;;;4.00;3.30;;;;;;;22.18;53.28;97352.16;5083360;28;21082;-69
2023/08/05 07:31:34;;;;;;;8.63;2.93;;;;;;;22.23;53.19;97344.31;5087236;28;20292;-70
2023/08/05 07:34:00;;;;;;;5.27;3.50;;;;;;;22.22;52.50;97350.69;5086184;28;20226;-68
2023/08/05 07:36:27;;;;;;;4.33;3.10;;;;;;;22.22;52.83;97343.50;5088730;28;20190;-68
2023/08/05 07:38:54;;;;;;;4.10;3.70;;;;;;;22.23;52.78;97347.00;5087399;28;20202;-68
2023/08/05 07:41:21;;;;;;;3.97;3.23;;;;;;;22.22;52.91;97343.50;5089726;28;20428;-68
2023/08/05 07:43:47;;;;;;;4.60;2.70;;;;;;;22.26;52.81;97343.84;5089589;28;20827;-67
2023/08/05 07:46:13;;;;;;;6.47;3.10;;;;;;;22.28;52.82;97340.97;5088184;28;20518;-70
2023/08/05 07:48:39;;;;;;;4.20;3.10;;;;;;;22.29;53.03;97335.41;5089984;28;20295;-69
2023/08/05 07:51:06;;;;;;;2.90;2.70;;;;;;;22.36;52.95;97332.66;5088667;28;21733;-69
2023/08/05 07:53:37;;;;;;;2.73;2.53;;;;;;;22.43;52.75;97335.25;5090399;28;20438;-69
2023/08/05 07:56:13;;;;;;;4.70;2.90;;;;;;;22.48;52.73;97328.19;5088633;28;20452;-69
2023/08/05 07:58:42;;;;;;;3.10;2.80;;;;;;;22.56;52.23;97337.75;5089997;28;20443;-68
2023/08/05 08:01:07;;;;;;;3.67;2.70;;;;;;;22.64;52.00;97329.41;5085499;28;20424;-68
2023/08/05 08:03:33;;;;;;;2.83;2.60;;;;;;;22.70;51.94;97335.72;5083756;28;21161;-69
2023/08/05 08:05:59;;;;;;;3.47;3.10;;;;;;;22.78;51.84;97324.72;5087689;28;20181;-68
2023/08/05 08:08:24;;;;;;;3.30;2.60;;;;;;;22.90;51.72;97329.28;5084896;28;20209;-67
2023/08/05 08:10:50;;;;;;;6.43;2.80;;;;;;;23.00;51.12;97324.19;5083350;28;20185;-69
2023/08/05 08:13:15;;;;;;;6.03;2.83;;;;;;;23.10;50.99;97320.94;5083787;28;20565;-68
2023/08/05 08:15:41;;;;;;;4.47;2.83;;;;;;;23.19;50.61;97324.09;5085844;28;20812;-67
2023/08/05 08:18:06;;;;;;;2.60;2.40;;;;;;;23.39;49.86;97321.94;5083156;28;20193;-68
2023/08/05 08:20:32;;;;;;;3.67;2.93;;;;;;;23.56;49.23;97314.03;5084923;28;20753;-70
2023/08/05 08:22:57;;;;;;;3.73;2.40;;;;;;;23.69;49.10;97312.94;5086236;28;20190;-69
2023/08/05 08:25:23;;;;;;;3.10;2.63;;;;;;;23.87;49.00;97319.22;5083352;28;20186;-69
2023/08/05 08:27:48;;;;;;;3.03;2.30;;;;;;;24.04;48.37;97309.44;5089149;28;20564;-70
2023/08/05 08:30:14;;;;;;;2.70;2.37;;;;;;;24.29;47.49;97304.81;5079779;28;20217;-68
2023/08/05 08:32:39;;;;;;;2.70;2.30;;;;;;;24.57;46.46;97301.34;5085406;28;20190;-69
2023/08/05 08:35:05;;;;;;;2.23;2.00;;;;;;;24.73;46.34;97290.91;5081099;28;20293;-69
2023/08/05 08:37:30;;;;;;;2.37;2.17;;;;;;;24.82;45.97;97289.47;5081122;28;20711;-69
2023/08/05 08:39:56;;;;;;;2.77;2.00;;;;;;;24.89;45.80;97292.81;5088757;28;20950;-69
2023/08/05 08:42:22;;;;;;;2.53;1.90;;;;;;;25.10;45.98;97298.47;5092027;28;20828;-69
2023/08/05 08:44:48;;;;;;;2.10;1.90;;;;;;;25.28;44.52;97295.56;5091853;28;20213;-68
2023/08/05 08:47:16;;;;;;;3.87;2.73;;;;;;;25.43;44.18;97289.63;5090187;28;20479;-69
2023/08/05 08:49:42;;;;;;;11.17;2.53;;;;;;;25.67;44.29;97291.31;5087035;28;20443;-68
2023/08/05 08:52:08;;;;;;;4.50;2.67;;;;;;;25.91;44.18;97281.94;5089197;28;20423;-69
2023/08/05 08:54:34;;;;;;;7.73;2.03;;;;;;;26.16;43.69;97282.53;5084847;28;20547;-70
2023/08/05 08:56:59;;;;;;;2.73;1.93;;;;;;;26.37;42.58;97283.56;5081930;28;20511;-68
2023/08/05 08:59:25;;;;;;;2.93;2.07;;;;;;;26.59;41.40;97298.84;5079253;28;20331;-68
2023/08/05 09:01:51;;;;;;;4.97;1.97;;;;;;;26.77;40.95;97284.22;5083996;28;20214;-68
2023/08/05 09:04:18;;;;;;;5.13;2.20;;;;;;;26.67;40.27;97285.72;5084378;28;20547;-68
2023/08/05 09:06:45;;;;;;;3.83;2.20;;;;;;;26.51;40.90;97289.34;5084424;28;21076;-67
2023/08/05 09:09:11;;;;;;;3.77;2.10;;;;;;;26.70;40.74;97287.13;5074900;28;20452;-68
2023/08/05 09:11:37;;;;;;;2.20;2.00;;;;;;;26.89;39.66;97278.69;5081418;28;20805;-68
2023/08/05 09:14:03;;;;;;;3.13;1.90;;;;;;;27.11;39.62;97286.66;5085547;28;20467;-68
2023/08/05 09:16:29;;;;;;;3.10;1.93;;;;;;;27.32;39.88;97279.56;5079786;28;20181;-68
2023/08/05 09:18:55;;;;;;;1.93;1.73;;;;;;;27.39;39.04;97284.72;5081435;28;20461;-68
2023/08/05 09:21:24;;;;;;;5.20;2.00;;;;;;;27.37;38.97;97279.56;5079419;28;20204;-68
2023/08/05 09:23:53;;;;;;;6.17;3.20;;;;;;;27.14;37.97;97278.09;5079595;28;20423;-68
2023/08/05 09:26:29;;;;;;;2.40;2.10;;;;;;;26.90;38.60;97280.31;5078329;28;20424;-68
2023/08/05 09:28:58;;;;;;;2.57;2.00;;;;;;;26.71;38.76;97287.91;5078258;28;21265;-69
2023/08/05 09:31:23;;;;;;;2.23;1.60;;;;;;;26.39;38.77;97277.94;5086439;28;20435;-70
2023/08/05 09:33:49;;;;;;;3.87;1.70;;;;;;;26.12;39.56;97281.41;5086692;28;20432;-69
2023/08/05 09:36:15;;;;;;;2.23;1.70;;;;;;;25.90;39.69;97271.44;5087296;28;20201;-69
2023/08/05 09:38:44;;;;;;;10.33;2.20;;;;;;;25.69;40.28;97283.81;5094968;28;20209;-69
2023/08/05 09:41:10;;;;;;;6.83;2.10;;;;;;;25.53;40.66;97278.25;5087145;28;20198;-70
2023/08/05 09:43:40;;;;;;;3.50;1.80;;;;;;;25.36;41.59;97270.19;5088548;28;20428;-69
2023/08/05 09:46:11;;;;;;;2.60;1.50;;;;;;;25.21;40.49;97273.44;5082449;28;20193;-69
2023/08/05 09:48:43;;;;;;;2.83;1.60;;;;;;;25.10;40.87;97277.03;5085341;28;20443;-69
2023/08/05 09:51:16;;;;;;;1.83;1.60;;;;;;;25.02;40.11;97261.38;5086836;28;20554;-70
2023/08/05 09:53:42;;;;;;;2.60;2.00;;;;;;;24.95;40.50;97265.00;5082657;28;20515;-68
2023/08/05 09:56:09;;;;;;;2.43;2.23;;;;;;;24.88;41.25;97259.00;5088298;28;20481;-69
2023/08/05 09:58:37;;;;;;;4.23;2.00;;;;;;;24.83;41.80;97264.28;5088183;28;20443;-69
2023/08/05 10:01:08;;;;;;;5.63;1.67;;;;;;;24.77;42.43;97265.25;5082411;28;21125;-69
2023/08/05 10:03:39;;;;;;;4.40;2.20;;;;;;;24.73;42.05;97256.06;5090877;28;20430;-70
2023/08/05 10:06:06;;;;;;;2.83;1.90;;;;;;;24.68;41.80;97254.94;5080318;28;20523;-69
2023/08/05 10:08:33;;;;;;;5.50;1.70;;;;;;;24.62;42.04;97255.09;5083383;28;20435;-70
2023/08/05 10:10:59;;;;;;;7.80;1.90;;;;;;;24.57;41.73;97257.66;5086329;28;20423;-68
2023/08/05 10:13:25;;;;;;;3.73;1.93;;;;;;;24.56;42.07;97256.03;5079300;28;20427;-69
2023/08/05 10:15:52;;;;;;;7.33;1.77;;;;;;;24.54;41.29;97250.94;5082218;28;20458;-69
2023/08/05 10:18:18;;;;;;;4.80;1.90;;;;;;;24.58;42.14;97243.22;5078728;28;20182;-68
2023/08/05 10:20:49;;;;;;;2.43;1.83;;;;;;;24.59;41.17;97250.19;5080516;28;20426;-69
2023/08/05 10:23:14;;;;;;;4.43;2.30;;;;;;;24.57;40.68;97242.41;5071099;28;20265;-69
2023/08/05 10:25:44;;;;;;;2.30;1.83;;;;;;;24.54;40.04;97237.53;5076405;28;20862;-69
2023/08/05 10:28:10;;;;;;;2.47;1.80;;;;;;;24.57;39.66;97230.88;5089042;28;20185;-69
2023/08/05 10:30:43;;;;;;;2.27;1.80;;;;;;;24.58;40.19;97235.19;5083266;28;20792;-69
2023/08/05 10:33:08;;;;;;;5.30;2.13;;;;;;;24.57;40.65;97237.06;5079320;28;20427;-69
2023/08/05 10:35:41;;;;;;;1.80;1.70;;;;;;;24.50;41.51;97242.56;5081907;28;20455;-71
2023/08/05 10:38:09;;;;;;;2.37;1.60;;;;;;;24.44;42.00;97237.38;5087490;28;20292;-69
2023/08/05 10:41:03;;;;;;;1.90;1.80;;;;;;;24.38;43.00;97239.13;5083556;28;20431;-69
2023/08/05 10:43:31;;;;;;;6.20;2.17;;;;;;;24.34;43.00;97244.13;5087503;28;20427;-69
2023/08/05 10:46:06;;;;;;;3.93;2.30;;;;;;;24.31;42.97;97235.78;5085286;28;20477;-69
2023/08/05 10:48:54;;;;;;;2.70;2.00;;;;;;;24.26;43.24;97230.34;5084090;28;20449;-68
2023/08/05 10:51:22;;;;;;;2.77;2.10;;;;;;;24.23;43.49;97231.63;5084721;28;20495;-68
2023/08/05 10:53:51;;;;;;;2.80;2.10;;;;;;;24.19;43.65;97227.81;5090324;28;20461;-68
2023/08/05 10:56:17;;;;;;;4.53;2.20;;;;;;;24.14;43.92;97227.72;5091464;28;20423;-68
2023/08/05 10:58:47;;;;;;;2.60;2.20;;;;;;;24.11;43.93;97225.50;5091638;28;20462;-67
2023/08/05 11:01:13;;;;;;;3.33;2.87;;;;;;;24.10;44.04;97227.38;5084104;28;20442;-69
2023/08/05 11:03:45;;;;;;;2.30;2.10;;;;;;;24.11;44.28;97222.84;5082610;28;20446;-69
2023/08/05 11:06:11;;;;;;;4.80;2.10;;;;;;;24.12;44.01;97213.75;5082811;28;20189;-69
2023/08/05 11:08:39;;;;;;;5.10;2.47;;;;;;;24.14;44.57;97212.44;5083173;28;20460;-69
2023/08/05 11:11:06;;;;;;;3.80;2.40;;;;;;;24.17;43.92;97206.63;5075451;28;20514;-69
2023/08/05 11:13:37;;;;;;;2.90;2.10;;;;;;;24.17;44.04;97211.19;5081557;28;20567;-69
2023/08/05 11:16:13;;;;;;;3.17;1.87;;;;;;;24.18;44.07;97207.47;5084077;28;20524;-68
2023/08/05 11:18:40;;;;;;;2.50;1.83;;;;;;;24.21;44.42;97198.91;5081916;28;21180;-68
2023/08/05 11:21:08;;;;;;;2.53;2.30;;;;;;;24.22;43.80;97188.00;5087169;28;20459;-68
2023/08/05 11:23:35;;;;;;;2.23;2.03;;;;;;;24.27;43.41;97189.13;5089030;28;20435;-69
2023/08/05 11:26:05;;;;;;;4.50;2.67;;;;;;;24.30;43.96;97186.78;5081727;28;20419;-68
2023/08/05 11:28:31;;;;;;;3.63;1.90;;;;;;;24.33;43.46;97188.16;5082942;28;20448;-68
2023/08/05 11:30:56;;;;;;;5.20;2.60;;;;;;;24.37;43.10;97183.97;5086406;28;20564;-68